sensor_id;sensor_type;location;lat;lon;timestamp;P1;durP1;ratioP1;P2;durP2;ratioP2
78458;SDS011;67753;42.684;23.330;2023-07-13T00:01:25;19.70;;;17.70;;
78458;SDS011;67753;42.684;23.330;2023-07-13T00:03:28;26.30;;;23.50;;
78458;SDS011;67753;42.684;23.330;2023-07-13T00:05:35;15.60;;;13.98;;
78458;SDS011;67753;42.684;23.330;2023-07-13T00:07:37;18.55;;;15.68;;
78458;SDS011;67753;42.684;23.330;2023-07-13T00:09:39;18.45;;;15.85;;
78458;SDS011;67753;42.684;23.330;2023-07-13T00:11:41;25.13;;;22.65;;
78458;SDS011;67753;42.684;23.330;2023-07-13T00:13:47;15.55;;;13.98;;
78458;SDS011;67753;42.684;23.330;2023-07-13T00:15:50;13.07;;;11.55;;
78458;SDS011;67753;42.684;23.330;2023-07-13T00:17:57;7.20;;;6.32;;
78458;SDS011;67753;42.684;23.330;2023-07-13T00:20:01;7.30;;;5.72;;
78458;SDS011;67753;42.684;23.330;2023-07-13T00:22:05;15.73;;;11.05;;
78458;SDS011;67753;42.684;23.330;2023-07-13T00:24:07;8.55;;;7.63;;
78458;SDS011;67753;42.684;23.330;2023-07-13T00:26:12;12.25;;;10.60;;
78458;SDS011;67753;42.684;23.330;2023-07-13T00:28:15;11.05;;;9.82;;
78458;SDS011;67753;42.684;23.330;2023-07-13T00:30:17;8.20;;;7.30;;
78458;SDS011;67753;42.684;23.330;2023-07-13T00:32:19;11.32;;;7.30;;
78458;SDS011;67753;42.684;23.330;2023-07-13T00:34:22;8.80;;;7.10;;
78458;SDS011;67753;42.684;23.330;2023-07-13T00:36:24;7.53;;;6.82;;
78458;SDS011;67753;42.684;23.330;2023-07-13T00:38:26;8.07;;;7.22;;
78458;SDS011;67753;42.684;23.330;2023-07-13T00:40:28;7.43;;;6.07;;
78458;SDS011;67753;42.684;23.330;2023-07-13T00:42:30;7.70;;;7.00;;
78458;SDS011;67753;42.684;23.330;2023-07-13T00:44:32;8.48;;;7.55;;
78458;SDS011;67753;42.684;23.330;2023-07-13T00:46:34;8.93;;;7.53;;
78458;SDS011;67753;42.684;23.330;2023-07-13T00:48:36;9.25;;;7.03;;
78458;SDS011;67753;42.684;23.330;2023-07-13T00:50:39;7.90;;;7.05;;
78458;SDS011;67753;42.684;23.330;2023-07-13T00:52:44;7.20;;;6.50;;
78458;SDS011;67753;42.684;23.330;2023-07-13T00:54:47;7.85;;;7.13;;
78458;SDS011;67753;42.684;23.330;2023-07-13T00:56:49;7.50;;;6.80;;
78458;SDS011;67753;42.684;23.330;2023-07-13T00:58:54;9.00;;;6.70;;
78458;SDS011;67753;42.684;23.330;2023-07-13T01:00:55;8.77;;;6.90;;
78458;SDS011;67753;42.684;23.330;2023-07-13T01:02:57;8.65;;;6.20;;
78458;SDS011;67753;42.684;23.330;2023-07-13T01:04:59;13.88;;;7.13;;
78458;SDS011;67753;42.684;23.330;2023-07-13T01:07:03;10.10;;;6.47;;
78458;SDS011;67753;42.684;23.330;2023-07-13T01:09:07;9.00;;;6.95;;
78458;SDS011;67753;42.684;23.330;2023-07-13T01:11:10;7.55;;;6.00;;
78458;SDS011;67753;42.684;23.330;2023-07-13T01:13:11;8.15;;;7.28;;
78458;SDS011;67753;42.684;23.330;2023-07-13T01:15:33;7.68;;;6.95;;
78458;SDS011;67753;42.684;23.330;2023-07-13T01:17:37;8.73;;;6.95;;
78458;SDS011;67753;42.684;23.330;2023-07-13T01:19:40;8.68;;;7.47;;
78458;SDS011;67753;42.684;23.330;2023-07-13T01:21:49;7.88;;;7.18;;
78458;SDS011;67753;42.684;23.330;2023-07-13T01:23:51;7.90;;;7.20;;
78458;SDS011;67753;42.684;23.330;2023-07-13T01:25:55;9.82;;;7.72;;
78458;SDS011;67753;42.684;23.330;2023-07-13T01:27:57;8.88;;;7.18;;
78458;SDS011;67753;42.684;23.330;2023-07-13T01:29:59;7.60;;;6.93;;
78458;SDS011;67753;42.684;23.330;2023-07-13T01:32:04;7.95;;;7.18;;
78458;SDS011;67753;42.684;23.330;2023-07-13T01:34:08;7.28;;;6.63;;
78458;SDS011;67753;42.684;23.330;2023-07-13T01:36:10;10.57;;;7.05;;
78458;SDS011;67753;42.684;23.330;2023-07-13T01:38:16;8.20;;;7.40;;
78458;SDS011;67753;42.684;23.330;2023-07-13T01:40:19;9.68;;;7.65;;
78458;SDS011;67753;42.684;23.330;2023-07-13T01:42:21;7.80;;;7.10;;
78458;SDS011;67753;42.684;23.330;2023-07-13T01:44:23;7.72;;;7.05;;
78458;SDS011;67753;42.684;23.330;2023-07-13T01:46:26;7.57;;;6.88;;
78458;SDS011;67753;42.684;23.330;2023-07-13T01:48:28;8.45;;;7.80;;
78458;SDS011;67753;42.684;23.330;2023-07-13T01:50:30;7.43;;;6.82;;
78458;SDS011;67753;42.684;23.330;2023-07-13T01:52:32;8.10;;;7.30;;
78458;SDS011;67753;42.684;23.330;2023-07-13T01:54:35;8.40;;;7.43;;
78458;SDS011;67753;42.684;23.330;2023-07-13T01:56:37;8.80;;;7.53;;
78458;SDS011;67753;42.684;23.330;2023-07-13T01:58:39;8.32;;;7.43;;
78458;SDS011;67753;42.684;23.330;2023-07-13T02:00:41;8.50;;;7.70;;
78458;SDS011;67753;42.684;23.330;2023-07-13T02:02:43;8.25;;;7.35;;
78458;SDS011;67753;42.684;23.330;2023-07-13T02:04:45;8.75;;;7.95;;
78458;SDS011;67753;42.684;23.330;2023-07-13T02:06:47;9.77;;;7.88;;
78458;SDS011;67753;42.684;23.330;2023-07-13T02:08:49;7.65;;;6.97;;
78458;SDS011;67753;42.684;23.330;2023-07-13T02:10:52;9.18;;;8.23;;
78458;SDS011;67753;42.684;23.330;2023-07-13T02:12:53;8.93;;;7.75;;
78458;SDS011;67753;42.684;23.330;2023-07-13T02:14:55;11.57;;;8.70;;
78458;SDS011;67753;42.684;23.330;2023-07-13T02:16:57;9.07;;;8.10;;
78458;SDS011;67753;42.684;23.330;2023-07-13T02:18:59;10.80;;;8.02;;
78458;SDS011;67753;42.684;23.330;2023-07-13T02:21:02;8.40;;;7.63;;
78458;SDS011;67753;42.684;23.330;2023-07-13T02:23:04;9.23;;;8.45;;
78458;SDS011;67753;42.684;23.330;2023-07-13T02:25:06;10.90;;;7.80;;
78458;SDS011;67753;42.684;23.330;2023-07-13T02:27:09;8.90;;;8.20;;
78458;SDS011;67753;42.684;23.330;2023-07-13T02:29:11;8.73;;;7.95;;
78458;SDS011;67753;42.684;23.330;2023-07-13T02:31:14;8.52;;;7.72;;
78458;SDS011;67753;42.684;23.330;2023-07-13T02:33:16;9.05;;;8.15;;
78458;SDS011;67753;42.684;23.330;2023-07-13T02:35:18;8.93;;;7.88;;
78458;SDS011;67753;42.684;23.330;2023-07-13T02:37:20;12.05;;;8.82;;
78458;SDS011;67753;42.684;23.330;2023-07-13T02:39:21;8.48;;;7.57;;
78458;SDS011;67753;42.684;23.330;2023-07-13T02:41:23;8.85;;;8.15;;
78458;SDS011;67753;42.684;23.330;2023-07-13T02:43:26;8.98;;;8.18;;
78458;SDS011;67753;42.684;23.330;2023-07-13T02:45:29;8.75;;;7.97;;
78458;SDS011;67753;42.684;23.330;2023-07-13T02:47:32;11.50;;;8.40;;
78458;SDS011;67753;42.684;23.330;2023-07-13T02:49:34;9.40;;;7.80;;
78458;SDS011;67753;42.684;23.330;2023-07-13T02:51:34;8.77;;;7.85;;
78458;SDS011;67753;42.684;23.330;2023-07-13T02:53:36;10.13;;;9.13;;
78458;SDS011;67753;42.684;23.330;2023-07-13T02:55:38;8.60;;;7.78;;
78458;SDS011;67753;42.684;23.330;2023-07-13T02:57:40;9.48;;;8.52;;
78458;SDS011;67753;42.684;23.330;2023-07-13T02:59:44;9.15;;;8.35;;
78458;SDS011;67753;42.684;23.330;2023-07-13T03:01:45;8.60;;;7.80;;
78458;SDS011;67753;42.684;23.330;2023-07-13T03:03:46;9.68;;;7.78;;
78458;SDS011;67753;42.684;23.330;2023-07-13T03:05:57;10.27;;;8.80;;
78458;SDS011;67753;42.684;23.330;2023-07-13T03:08:00;9.02;;;8.15;;
78458;SDS011;67753;42.684;23.330;2023-07-13T03:10:01;9.20;;;8.25;;
78458;SDS011;67753;42.684;23.330;2023-07-13T03:12:05;8.73;;;7.90;;
78458;SDS011;67753;42.684;23.330;2023-07-13T03:14:07;13.90;;;9.38;;
78458;SDS011;67753;42.684;23.330;2023-07-13T03:16:10;9.90;;;8.30;;
78458;SDS011;67753;42.684;23.330;2023-07-13T03:18:12;9.98;;;7.95;;
78458;SDS011;67753;42.684;23.330;2023-07-13T03:20:14;9.20;;;8.30;;
78458;SDS011;67753;42.684;23.330;2023-07-13T03:22:16;10.48;;;8.75;;
78458;SDS011;67753;42.684;23.330;2023-07-13T03:24:18;10.25;;;8.25;;
78458;SDS011;67753;42.684;23.330;2023-07-13T03:26:20;9.43;;;8.52;;
78458;SDS011;67753;42.684;23.330;2023-07-13T03:28:22;9.07;;;8.27;;
78458;SDS011;67753;42.684;23.330;2023-07-13T03:30:24;10.35;;;8.48;;
78458;SDS011;67753;42.684;23.330;2023-07-13T03:32:28;10.30;;;9.35;;
78458;SDS011;67753;42.684;23.330;2023-07-13T03:34:30;9.73;;;8.73;;
78458;SDS011;67753;42.684;23.330;2023-07-13T03:36:31;9.73;;;8.73;;
78458;SDS011;67753;42.684;23.330;2023-07-13T03:38:34;9.57;;;8.80;;
78458;SDS011;67753;42.684;23.330;2023-07-13T03:40:36;8.90;;;8.10;;
78458;SDS011;67753;42.684;23.330;2023-07-13T03:42:38;9.48;;;8.65;;
78458;SDS011;67753;42.684;23.330;2023-07-13T03:44:39;11.52;;;8.65;;
78458;SDS011;67753;42.684;23.330;2023-07-13T03:46:42;10.45;;;8.85;;
78458;SDS011;67753;42.684;23.330;2023-07-13T03:48:45;9.18;;;8.38;;
78458;SDS011;67753;42.684;23.330;2023-07-13T03:50:48;10.10;;;9.10;;
78458;SDS011;67753;42.684;23.330;2023-07-13T03:52:50;11.98;;;8.88;;
78458;SDS011;67753;42.684;23.330;2023-07-13T03:54:52;10.20;;;9.30;;
78458;SDS011;67753;42.684;23.330;2023-07-13T03:56:54;9.55;;;8.75;;
78458;SDS011;67753;42.684;23.330;2023-07-13T03:58:56;10.30;;;9.50;;
78458;SDS011;67753;42.684;23.330;2023-07-13T04:00:57;10.60;;;9.43;;
78458;SDS011;67753;42.684;23.330;2023-07-13T04:03:00;10.13;;;9.00;;
78458;SDS011;67753;42.684;23.330;2023-07-13T04:05:02;10.15;;;9.18;;
78458;SDS011;67753;42.684;23.330;2023-07-13T04:07:04;10.07;;;9.07;;
78458;SDS011;67753;42.684;23.330;2023-07-13T04:09:07;10.80;;;9.70;;
78458;SDS011;67753;42.684;23.330;2023-07-13T04:11:09;10.30;;;9.32;;
78458;SDS011;67753;42.684;23.330;2023-07-13T04:13:10;10.45;;;9.43;;
78458;SDS011;67753;42.684;23.330;2023-07-13T04:15:12;10.98;;;9.77;;
78458;SDS011;67753;42.684;23.330;2023-07-13T04:17:14;11.18;;;10.18;;
78458;SDS011;67753;42.684;23.330;2023-07-13T04:19:16;10.65;;;9.75;;
78458;SDS011;67753;42.684;23.330;2023-07-13T04:21:19;11.48;;;10.10;;
78458;SDS011;67753;42.684;23.330;2023-07-13T04:23:22;10.30;;;9.40;;
78458;SDS011;67753;42.684;23.330;2023-07-13T04:25:24;11.20;;;9.77;;
78458;SDS011;67753;42.684;23.330;2023-07-13T04:27:25;11.07;;;10.13;;
78458;SDS011;67753;42.684;23.330;2023-07-13T04:29:28;10.35;;;9.35;;
78458;SDS011;67753;42.684;23.330;2023-07-13T04:31:31;10.65;;;9.75;;
78458;SDS011;67753;42.684;23.330;2023-07-13T04:33:34;10.45;;;9.52;;
78458;SDS011;67753;42.684;23.330;2023-07-13T04:35:36;10.35;;;9.32;;
78458;SDS011;67753;42.684;23.330;2023-07-13T04:37:38;9.82;;;9.00;;
78458;SDS011;67753;42.684;23.330;2023-07-13T04:39:40;11.40;;;10.18;;
78458;SDS011;67753;42.684;23.330;2023-07-13T04:41:42;11.30;;;9.88;;
78458;SDS011;67753;42.684;23.330;2023-07-13T04:43:44;11.18;;;10.15;;
78458;SDS011;67753;42.684;23.330;2023-07-13T04:45:46;11.30;;;10.20;;
78458;SDS011;67753;42.684;23.330;2023-07-13T04:47:48;11.02;;;10.02;;
78458;SDS011;67753;42.684;23.330;2023-07-13T04:49:50;15.40;;;10.30;;
78458;SDS011;67753;42.684;23.330;2023-07-13T04:51:52;11.10;;;10.10;;
78458;SDS011;67753;42.684;23.330;2023-07-13T04:53:57;12.95;;;10.82;;
78458;SDS011;67753;42.684;23.330;2023-07-13T04:55:59;13.27;;;10.15;;
78458;SDS011;67753;42.684;23.330;2023-07-13T04:58:01;15.30;;;10.93;;
78458;SDS011;67753;42.684;23.330;2023-07-13T05:00:04;13.68;;;10.80;;
78458;SDS011;67753;42.684;23.330;2023-07-13T05:02:07;14.57;;;10.93;;
78458;SDS011;67753;42.684;23.330;2023-07-13T05:04:09;14.55;;;11.23;;
78458;SDS011;67753;42.684;23.330;2023-07-13T05:06:11;14.18;;;10.68;;
78458;SDS011;67753;42.684;23.330;2023-07-13T05:08:14;11.55;;;10.57;;
78458;SDS011;67753;42.684;23.330;2023-07-13T05:10:17;12.27;;;11.15;;
78458;SDS011;67753;42.684;23.330;2023-07-13T05:12:19;12.25;;;11.05;;
78458;SDS011;67753;42.684;23.330;2023-07-13T05:14:21;12.98;;;11.40;;
78458;SDS011;67753;42.684;23.330;2023-07-13T05:16:23;15.52;;;11.90;;
78458;SDS011;67753;42.684;23.330;2023-07-13T05:18:24;13.35;;;12.00;;
78458;SDS011;67753;42.684;23.330;2023-07-13T05:20:26;13.23;;;11.98;;
78458;SDS011;67753;42.684;23.330;2023-07-13T05:22:28;13.30;;;11.77;;
78458;SDS011;67753;42.684;23.330;2023-07-13T05:24:30;15.43;;;12.57;;
78458;SDS011;67753;42.684;23.330;2023-07-13T05:26:34;12.55;;;11.25;;
78458;SDS011;67753;42.684;23.330;2023-07-13T05:28:36;14.50;;;11.27;;
78458;SDS011;67753;42.684;23.330;2023-07-13T05:30:39;13.30;;;11.85;;
78458;SDS011;67753;42.684;23.330;2023-07-13T05:32:40;12.90;;;11.75;;
78458;SDS011;67753;42.684;23.330;2023-07-13T05:34:42;13.32;;;12.15;;
78458;SDS011;67753;42.684;23.330;2023-07-13T05:36:44;15.05;;;11.90;;
78458;SDS011;67753;42.684;23.330;2023-07-13T05:38:46;12.85;;;11.55;;
78458;SDS011;67753;42.684;23.330;2023-07-13T05:40:49;18.35;;;11.90;;
78458;SDS011;67753;42.684;23.330;2023-07-13T05:42:53;16.38;;;12.20;;
78458;SDS011;67753;42.684;23.330;2023-07-13T05:44:55;13.25;;;10.98;;
78458;SDS011;67753;42.684;23.330;2023-07-13T05:46:57;13.48;;;11.10;;
78458;SDS011;67753;42.684;23.330;2023-07-13T05:48:59;12.48;;;11.32;;
78458;SDS011;67753;42.684;23.330;2023-07-13T05:51:01;15.77;;;12.30;;
78458;SDS011;67753;42.684;23.330;2023-07-13T05:53:04;13.68;;;12.32;;
78458;SDS011;67753;42.684;23.330;2023-07-13T05:55:05;13.80;;;12.30;;
78458;SDS011;67753;42.684;23.330;2023-07-13T05:57:07;13.93;;;12.57;;
78458;SDS011;67753;42.684;23.330;2023-07-13T05:59:12;14.02;;;12.63;;
78458;SDS011;67753;42.684;23.330;2023-07-13T06:01:15;13.57;;;12.18;;
78458;SDS011;67753;42.684;23.330;2023-07-13T06:03:19;13.35;;;11.95;;
78458;SDS011;67753;42.684;23.330;2023-07-13T06:05:19;12.65;;;10.48;;
78458;SDS011;67753;42.684;23.330;2023-07-13T06:07:22;12.68;;;11.35;;
78458;SDS011;67753;42.684;23.330;2023-07-13T06:09:24;13.75;;;12.27;;
78458;SDS011;67753;42.684;23.330;2023-07-13T06:11:25;12.88;;;11.40;;
78458;SDS011;67753;42.684;23.330;2023-07-13T06:13:30;11.10;;;10.13;;
78458;SDS011;67753;42.684;23.330;2023-07-13T06:15:32;12.68;;;11.57;;
78458;SDS011;67753;42.684;23.330;2023-07-13T06:17:34;12.55;;;10.90;;
78458;SDS011;67753;42.684;23.330;2023-07-13T06:19:36;13.10;;;11.75;;
78458;SDS011;67753;42.684;23.330;2023-07-13T06:21:38;13.05;;;11.85;;
78458;SDS011;67753;42.684;23.330;2023-07-13T06:23:40;15.80;;;11.60;;
78458;SDS011;67753;42.684;23.330;2023-07-13T06:25:43;12.90;;;11.63;;
78458;SDS011;67753;42.684;23.330;2023-07-13T06:27:45;12.00;;;10.75;;
78458;SDS011;67753;42.684;23.330;2023-07-13T06:29:47;11.80;;;10.65;;
78458;SDS011;67753;42.684;23.330;2023-07-13T06:31:50;11.88;;;10.70;;
78458;SDS011;67753;42.684;23.330;2023-07-13T06:33:52;14.63;;;10.48;;
78458;SDS011;67753;42.684;23.330;2023-07-13T06:35:54;12.95;;;11.75;;
78458;SDS011;67753;42.684;23.330;2023-07-13T06:37:56;13.65;;;11.35;;
78458;SDS011;67753;42.684;23.330;2023-07-13T06:39:57;12.10;;;11.00;;
78458;SDS011;67753;42.684;23.330;2023-07-13T06:41:59;12.00;;;10.82;;
78458;SDS011;67753;42.684;23.330;2023-07-13T06:44:01;11.75;;;9.90;;
78458;SDS011;67753;42.684;23.330;2023-07-13T06:46:03;11.27;;;10.27;;
78458;SDS011;67753;42.684;23.330;2023-07-13T06:48:06;11.65;;;10.55;;
78458;SDS011;67753;42.684;23.330;2023-07-13T06:50:09;13.98;;;12.57;;
78458;SDS011;67753;42.684;23.330;2023-07-13T06:52:11;13.98;;;10.90;;
78458;SDS011;67753;42.684;23.330;2023-07-13T06:54:13;10.90;;;10.00;;
78458;SDS011;67753;42.684;23.330;2023-07-13T06:56:15;13.27;;;11.93;;
78458;SDS011;67753;42.684;23.330;2023-07-13T06:58:18;12.50;;;10.23;;
78458;SDS011;67753;42.684;23.330;2023-07-13T07:00:21;33.00;;;29.88;;
78458;SDS011;67753;42.684;23.330;2023-07-13T07:02:23;12.65;;;11.00;;
78458;SDS011;67753;42.684;23.330;2023-07-13T07:04:28;11.80;;;10.63;;
78458;SDS011;67753;42.684;23.330;2023-07-13T07:06:30;11.88;;;9.95;;
78458;SDS011;67753;42.684;23.330;2023-07-13T07:08:32;24.55;;;22.10;;
78458;SDS011;67753;42.684;23.330;2023-07-13T07:10:34;14.88;;;13.40;;
78458;SDS011;67753;42.684;23.330;2023-07-13T07:12:37;14.50;;;13.20;;
78458;SDS011;67753;42.684;23.330;2023-07-13T07:14:37;16.55;;;14.98;;
78458;SDS011;67753;42.684;23.330;2023-07-13T07:16:39;13.57;;;12.20;;
78458;SDS011;67753;42.684;23.330;2023-07-13T07:18:41;13.77;;;12.32;;
78458;SDS011;67753;42.684;23.330;2023-07-13T07:20:44;17.95;;;16.20;;
78458;SDS011;67753;42.684;23.330;2023-07-13T07:22:46;14.90;;;13.40;;
78458;SDS011;67753;42.684;23.330;2023-07-13T07:24:47;14.02;;;11.90;;
78458;SDS011;67753;42.684;23.330;2023-07-13T07:26:49;13.68;;;11.73;;
78458;SDS011;67753;42.684;23.330;2023-07-13T07:28:51;14.77;;;12.77;;
78458;SDS011;67753;42.684;23.330;2023-07-13T07:30:57;12.23;;;11.02;;
78458;SDS011;67753;42.684;23.330;2023-07-13T07:32:58;13.02;;;11.85;;
78458;SDS011;67753;42.684;23.330;2023-07-13T07:35:01;13.98;;;10.98;;
78458;SDS011;67753;42.684;23.330;2023-07-13T07:37:04;12.10;;;11.00;;
78458;SDS011;67753;42.684;23.330;2023-07-13T07:39:06;12.48;;;11.32;;
78458;SDS011;67753;42.684;23.330;2023-07-13T07:41:09;13.50;;;11.63;;
78458;SDS011;67753;42.684;23.330;2023-07-13T07:43:11;12.25;;;11.05;;
78458;SDS011;67753;42.684;23.330;2023-07-13T07:45:14;12.52;;;11.15;;
78458;SDS011;67753;42.684;23.330;2023-07-13T07:47:16;11.55;;;10.30;;
78458;SDS011;67753;42.684;23.330;2023-07-13T07:49:18;13.98;;;12.68;;
78458;SDS011;67753;42.684;23.330;2023-07-13T07:51:20;12.13;;;10.82;;
78458;SDS011;67753;42.684;23.330;2023-07-13T07:53:23;11.27;;;10.32;;
78458;SDS011;67753;42.684;23.330;2023-07-13T07:55:26;9.95;;;9.15;;
78458;SDS011;67753;42.684;23.330;2023-07-13T07:57:28;10.95;;;9.90;;
78458;SDS011;67753;42.684;23.330;2023-07-13T07:59:30;11.40;;;10.32;;
78458;SDS011;67753;42.684;23.330;2023-07-13T08:01:32;11.40;;;9.63;;
78458;SDS011;67753;42.684;23.330;2023-07-13T08:03:34;11.57;;;10.48;;
78458;SDS011;67753;42.684;23.330;2023-07-13T08:05:36;11.65;;;10.43;;
78458;SDS011;67753;42.684;23.330;2023-07-13T08:07:37;13.10;;;10.23;;
78458;SDS011;67753;42.684;23.330;2023-07-13T08:09:42;9.70;;;8.90;;
78458;SDS011;67753;42.684;23.330;2023-07-13T08:11:44;11.48;;;10.35;;
78458;SDS011;67753;42.684;23.330;2023-07-13T08:13:46;10.85;;;9.70;;
78458;SDS011;67753;42.684;23.330;2023-07-13T08:15:48;10.95;;;9.95;;
78458;SDS011;67753;42.684;23.330;2023-07-13T08:17:50;11.25;;;10.00;;
78458;SDS011;67753;42.684;23.330;2023-07-13T08:19:52;11.15;;;10.05;;
78458;SDS011;67753;42.684;23.330;2023-07-13T08:21:54;10.90;;;9.82;;
78458;SDS011;67753;42.684;23.330;2023-07-13T08:23:56;13.32;;;9.60;;
78458;SDS011;67753;42.684;23.330;2023-07-13T08:25:59;11.27;;;9.68;;
78458;SDS011;67753;42.684;23.330;2023-07-13T08:28:01;11.02;;;9.80;;
78458;SDS011;67753;42.684;23.330;2023-07-13T08:30:03;10.55;;;9.48;;
78458;SDS011;67753;42.684;23.330;2023-07-13T08:32:08;13.05;;;9.95;;
78458;SDS011;67753;42.684;23.330;2023-07-13T08:34:11;13.15;;;9.13;;
78458;SDS011;67753;42.684;23.330;2023-07-13T08:36:14;12.30;;;9.40;;
78458;SDS011;67753;42.684;23.330;2023-07-13T08:38:17;13.00;;;9.93;;
78458;SDS011;67753;42.684;23.330;2023-07-13T08:40:18;10.25;;;9.23;;
78458;SDS011;67753;42.684;23.330;2023-07-13T08:42:36;11.25;;;10.15;;
78458;SDS011;67753;42.684;23.330;2023-07-13T08:44:45;11.40;;;10.20;;
78458;SDS011;67753;42.684;23.330;2023-07-13T08:46:56;13.65;;;9.75;;
78458;SDS011;67753;42.684;23.330;2023-07-13T08:49:01;10.98;;;9.95;;
78458;SDS011;67753;42.684;23.330;2023-07-13T08:51:09;13.18;;;10.50;;
78458;SDS011;67753;42.684;23.330;2023-07-13T08:53:18;12.32;;;10.75;;
78458;SDS011;67753;42.684;23.330;2023-07-13T08:55:22;12.32;;;10.77;;
78458;SDS011;67753;42.684;23.330;2023-07-13T08:57:30;11.48;;;10.48;;
78458;SDS011;67753;42.684;23.330;2023-07-13T08:59:37;14.98;;;10.38;;
78458;SDS011;67753;42.684;23.330;2023-07-13T09:01:47;11.52;;;10.32;;
78458;SDS011;67753;42.684;23.330;2023-07-13T09:03:58;13.15;;;11.00;;
78458;SDS011;67753;42.684;23.330;2023-07-13T09:06:04;11.20;;;10.05;;
78458;SDS011;67753;42.684;23.330;2023-07-13T09:08:15;15.18;;;10.10;;
78458;SDS011;67753;42.684;23.330;2023-07-13T09:10:32;12.13;;;9.93;;
78458;SDS011;67753;42.684;23.330;2023-07-13T09:12:47;11.55;;;10.15;;
78458;SDS011;67753;42.684;23.330;2023-07-13T09:14:58;11.75;;;10.52;;
78458;SDS011;67753;42.684;23.330;2023-07-13T09:17:04;15.68;;;12.77;;
78458;SDS011;67753;42.684;23.330;2023-07-13T09:19:15;15.13;;;11.43;;
78458;SDS011;67753;42.684;23.330;2023-07-13T09:21:24;13.30;;;10.88;;
78458;SDS011;67753;42.684;23.330;2023-07-13T09:23:31;12.63;;;10.73;;
78458;SDS011;67753;42.684;23.330;2023-07-13T09:25:32;12.70;;;10.18;;
78458;SDS011;67753;42.684;23.330;2023-07-13T09:27:37;14.70;;;10.60;;
78458;SDS011;67753;42.684;23.330;2023-07-13T09:29:40;13.32;;;10.40;;
78458;SDS011;67753;42.684;23.330;2023-07-13T09:31:52;14.68;;;11.30;;
78458;SDS011;67753;42.684;23.330;2023-07-13T09:33:55;11.52;;;9.93;;
78458;SDS011;67753;42.684;23.330;2023-07-13T09:35:58;14.93;;;10.80;;
78458;SDS011;67753;42.684;23.330;2023-07-13T09:38:02;13.35;;;11.52;;
78458;SDS011;67753;42.684;23.330;2023-07-13T09:40:15;10.73;;;9.73;;
78458;SDS011;67753;42.684;23.330;2023-07-13T09:42:23;12.02;;;10.07;;
78458;SDS011;67753;42.684;23.330;2023-07-13T09:44:27;11.05;;;10.05;;
78458;SDS011;67753;42.684;23.330;2023-07-13T09:46:32;14.43;;;10.25;;
78458;SDS011;67753;42.684;23.330;2023-07-13T09:48:36;13.25;;;10.35;;
78458;SDS011;67753;42.684;23.330;2023-07-13T09:50:38;14.07;;;10.30;;
78458;SDS011;67753;42.684;23.330;2023-07-13T09:52:41;11.27;;;10.15;;
78458;SDS011;67753;42.684;23.330;2023-07-13T09:54:44;12.00;;;10.77;;
78458;SDS011;67753;42.684;23.330;2023-07-13T09:56:48;13.57;;;11.18;;
78458;SDS011;67753;42.684;23.330;2023-07-13T09:58:57;11.82;;;10.00;;
78458;SDS011;67753;42.684;23.330;2023-07-13T10:01:02;12.80;;;11.57;;
78458;SDS011;67753;42.684;23.330;2023-07-13T10:03:06;12.20;;;10.60;;
78458;SDS011;67753;42.684;23.330;2023-07-13T10:05:21;11.38;;;10.23;;
78458;SDS011;67753;42.684;23.330;2023-07-13T10:07:25;13.95;;;10.75;;
78458;SDS011;67753;42.684;23.330;2023-07-13T10:09:27;11.90;;;10.57;;
78458;SDS011;67753;42.684;23.330;2023-07-13T10:11:29;12.00;;;10.77;;
78458;SDS011;67753;42.684;23.330;2023-07-13T10:13:34;12.43;;;10.63;;
78458;SDS011;67753;42.684;23.330;2023-07-13T10:15:38;14.93;;;11.00;;
78458;SDS011;67753;42.684;23.330;2023-07-13T10:17:39;11.80;;;9.88;;
78458;SDS011;67753;42.684;23.330;2023-07-13T10:19:44;10.82;;;9.80;;
78458;SDS011;67753;42.684;23.330;2023-07-13T10:21:53;11.68;;;10.57;;
78458;SDS011;67753;42.684;23.330;2023-07-13T10:23:56;10.57;;;9.55;;
78458;SDS011;67753;42.684;23.330;2023-07-13T10:26:06;10.88;;;9.77;;
78458;SDS011;67753;42.684;23.330;2023-07-13T10:28:21;11.10;;;9.52;;
78458;SDS011;67753;42.684;23.330;2023-07-13T10:30:28;10.50;;;9.40;;
78458;SDS011;67753;42.684;23.330;2023-07-13T10:32:34;11.80;;;10.18;;
78458;SDS011;67753;42.684;23.330;2023-07-13T10:34:37;12.55;;;8.27;;
78458;SDS011;67753;42.684;23.330;2023-07-13T10:36:40;8.32;;;6.22;;
78458;SDS011;67753;42.684;23.330;2023-07-13T10:38:46;7.88;;;6.45;;
78458;SDS011;67753;42.684;23.330;2023-07-13T10:40:51;9.82;;;5.80;;
78458;SDS011;67753;42.684;23.330;2023-07-13T10:42:59;7.40;;;6.30;;
78458;SDS011;67753;42.684;23.330;2023-07-13T10:45:11;6.60;;;5.90;;
78458;SDS011;67753;42.684;23.330;2023-07-13T10:47:16;8.65;;;5.85;;
78458;SDS011;67753;42.684;23.330;2023-07-13T10:49:18;7.57;;;5.97;;
78458;SDS011;67753;42.684;23.330;2023-07-13T10:51:21;8.05;;;5.93;;
78458;SDS011;67753;42.684;23.330;2023-07-13T10:53:27;7.78;;;5.72;;
78458;SDS011;67753;42.684;23.330;2023-07-13T10:55:37;7.70;;;5.43;;
78458;SDS011;67753;42.684;23.330;2023-07-13T10:57:42;7.25;;;5.47;;
78458;SDS011;67753;42.684;23.330;2023-07-13T10:59:46;6.07;;;5.47;;
78458;SDS011;67753;42.684;23.330;2023-07-13T11:01:52;9.43;;;5.15;;
78458;SDS011;67753;42.684;23.330;2023-07-13T11:03:59;8.85;;;5.18;;
78458;SDS011;67753;42.684;23.330;2023-07-13T11:06:05;8.80;;;5.75;;
78458;SDS011;67753;42.684;23.330;2023-07-13T11:08:16;12.13;;;6.53;;
78458;SDS011;67753;42.684;23.330;2023-07-13T11:12:53;7.43;;;5.63;;
78458;SDS011;67753;42.684;23.330;2023-07-13T11:15:03;6.55;;;5.88;;
78458;SDS011;67753;42.684;23.330;2023-07-13T11:17:24;10.55;;;6.10;;
78458;SDS011;67753;42.684;23.330;2023-07-13T11:24:14;6.32;;;5.78;;
78458;SDS011;67753;42.684;23.330;2023-07-13T11:28:44;7.25;;;5.97;;
78458;SDS011;67753;42.684;23.330;2023-07-13T11:31:12;6.32;;;5.63;;
78458;SDS011;67753;42.684;23.330;2023-07-13T11:33:18;12.65;;;6.45;;
78458;SDS011;67753;42.684;23.330;2023-07-13T11:35:23;7.55;;;6.07;;
78458;SDS011;67753;42.684;23.330;2023-07-13T11:37:29;9.63;;;6.55;;
78458;SDS011;67753;42.684;23.330;2023-07-13T11:39:32;7.05;;;6.18;;
78458;SDS011;67753;42.684;23.330;2023-07-13T11:41:43;8.18;;;6.40;;
78458;SDS011;67753;42.684;23.330;2023-07-13T11:43:53;7.25;;;6.55;;
78458;SDS011;67753;42.684;23.330;2023-07-13T11:45:56;9.45;;;6.50;;
78458;SDS011;67753;42.684;23.330;2023-07-13T11:47:57;9.10;;;6.50;;
78458;SDS011;67753;42.684;23.330;2023-07-13T11:50:00;8.45;;;6.30;;
78458;SDS011;67753;42.684;23.330;2023-07-13T11:52:03;9.65;;;6.75;;
78458;SDS011;67753;42.684;23.330;2023-07-13T11:54:06;6.95;;;6.32;;
78458;SDS011;67753;42.684;23.330;2023-07-13T11:56:21;7.78;;;6.32;;
78458;SDS011;67753;42.684;23.330;2023-07-13T11:58:26;6.97;;;6.38;;
78458;SDS011;67753;42.684;23.330;2023-07-13T12:00:29;7.75;;;6.22;;
78458;SDS011;67753;42.684;23.330;2023-07-13T12:02:36;9.23;;;6.50;;
78458;SDS011;67753;42.684;23.330;2023-07-13T12:04:41;11.00;;;6.90;;
78458;SDS011;67753;42.684;23.330;2023-07-13T12:06:45;8.50;;;6.40;;
78458;SDS011;67753;42.684;23.330;2023-07-13T12:08:47;9.10;;;6.63;;
78458;SDS011;67753;42.684;23.330;2023-07-13T12:10:48;10.73;;;6.93;;
78458;SDS011;67753;42.684;23.330;2023-07-13T12:12:58;9.85;;;7.18;;